Iago, Texas
Current Conditions -  °F | °C
As of 7:35 PM on Sunday 23 Nov 2014 (Local Time) from KARM Reporting Station
Clear Clear  
Wind Chill: 64°   Ceiling: Unl
Heat Index: 64°   Visibility: 10mi
Dew Point: 60°   Wind: 7mph
Humidity: 86%   Direction: 200°SSW
Pressure: 29.65"   Gusts: NA
Location:  29.2399°N, 95.9345°W
Report Text: KARM 240135Z AUTO 20006KT 10SM CLR 18/15 A2965 RMK AO2 T01760153
Loading
Personal Weather Stations






























Interactive Weather Map New forecast layout! Learn more

10-Day Weather Forecast

Advertisements
Track Severe Weather on mobile